Time;durP1;ratioP1;P1;durP2;ratioP2;P2;SDS_P1;SDS_P2;PMS_P1;PMS_P2;Temp;Humidity;BMP_temperature;BMP_pressure;BME280_temperature;BME280_humidity;BME280_pressure;Samples;Min_cycle;Max_cycle;Signal;HPM_P1;HPM_P2
2024/02/15 00:00:54;;;;;;;20.23;14.10;;;;;;;;;;5065224;28;20048;-73
2024/02/15 00:03:22;;;;;;;20.45;14.80;;;;;;;;;;5081266;28;20055;-73
2024/02/15 00:05:48;;;;;;;18.10;13.35;;;;;;;;;;5065068;28;20056;-72
2024/02/15 00:08:15;;;;;;;19.77;13.68;;;;;;;;;;5074055;28;20049;-72
2024/02/15 00:10:42;;;;;;;19.77;14.85;;;;;;;;;;5058756;28;20866;-72
2024/02/15 00:13:08;;;;;;;21.65;16.02;;;;;;;;;;5081741;28;20071;-72
2024/02/15 00:15:35;;;;;;;18.95;14.27;;;;;;;;;;5073028;28;20155;-72
2024/02/15 00:18:02;;;;;;;20.42;14.95;;;;;;;;;;5077925;28;20051;-71
2024/02/15 00:20:29;;;;;;;23.13;16.00;;;;;;;;;;5078930;28;20115;-73
2024/02/15 00:22:55;;;;;;;20.20;13.88;;;;;;;;;;5074662;28;20051;-73
2024/02/15 00:25:22;;;;;;;20.38;15.25;;;;;;;;;;5070007;28;20047;-72
2024/02/15 00:27:48;;;;;;;23.23;16.80;;;;;;;;;;5096908;28;20054;-72
2024/02/15 00:30:16;;;;;;;26.20;16.92;;;;;;;;;;5075295;28;20627;-74
2024/02/15 00:32:45;;;;;;;22.17;16.80;;;;;;;;;;5083630;28;20097;-73
2024/02/15 00:35:13;;;;;;;;;;;;;;;;;;5077738;28;20135;-73
2024/02/15 00:37:42;;;;;;;26.17;18.27;;;;;;;;;;5080727;28;20356;-73
2024/02/15 00:40:08;;;;;;;25.27;17.35;;;;;;;;;;5075153;28;20661;-71
2024/02/15 00:42:35;;;;;;;27.33;18.70;;;;;;;;;;5083728;28;20640;-73
2024/02/15 00:45:01;;;;;;;24.30;17.60;;;;;;;;;;5080715;28;20155;-73
2024/02/15 00:47:28;;;;;;;27.20;18.15;;;;;;;;;;5059695;28;20113;-73
2024/02/15 00:49:55;;;;;;;24.45;19.27;;;;;;;;;;5083598;28;20771;-73
2024/02/15 00:52:22;;;;;;;24.65;18.73;;;;;;;;;;5068658;28;22637;-73
2024/02/15 00:54:48;;;;;;;26.60;19.02;;;;;;;;;;5074953;28;20127;-73
2024/02/15 00:57:15;;;;;;;24.67;19.63;;;;;;;;;;5065033;28;20056;-74
2024/02/15 00:59:41;;;;;;;26.42;18.75;;;;;;;;;;5069558;28;20056;-73
2024/02/15 01:02:07;;;;;;;24.58;17.77;;;;;;;;;;5049996;28;20076;-73
2024/02/15 01:04:34;;;;;;;24.05;17.60;;;;;;;;;;5063457;28;20047;-73
2024/02/15 01:07:00;;;;;;;27.80;16.75;;;;;;;;;;5054568;28;20051;-73
2024/02/15 01:09:27;;;;;;;25.65;16.13;;;;;;;;;;5059505;28;20044;-73
2024/02/15 01:11:54;;;;;;;24.60;16.85;;;;;;;;;;5085139;28;20127;-72
2024/02/15 01:14:21;;;;;;;20.35;15.75;;;;;;;;;;5082500;28;20060;-73
2024/02/15 01:16:47;;;;;;;21.48;15.98;;;;;;;;;;5067287;28;20480;-74
2024/02/15 01:19:14;;;;;;;21.23;15.07;;;;;;;;;;5087110;28;20077;-74
2024/02/15 01:21:41;;;;;;;21.77;14.20;;;;;;;;;;5077037;28;20487;-73
2024/02/15 01:24:07;;;;;;;18.13;13.45;;;;;;;;;;5081464;28;20080;-73
2024/02/15 01:26:34;;;;;;;20.67;14.98;;;;;;;;;;5068532;28;20056;-74
2024/02/15 01:29:02;;;;;;;20.35;13.50;;;;;;;;;;5060360;28;20059;-73
2024/02/15 01:31:29;;;;;;;19.75;12.65;;;;;;;;;;5068427;28;20113;-74
2024/02/15 01:33:55;;;;;;;20.02;12.15;;;;;;;;;;5075198;28;20044;-73
2024/02/15 01:36:22;;;;;;;17.42;12.93;;;;;;;;;;5085256;28;20044;-74
2024/02/15 01:38:49;;;;;;;20.38;12.13;;;;;;;;;;5080888;28;20048;-74
2024/02/15 01:41:15;;;;;;;20.63;13.93;;;;;;;;;;5072948;28;20109;-73
2024/02/15 01:43:45;;;;;;;20.30;13.02;;;;;;;;;;5079116;28;20102;-72
2024/02/15 01:46:12;;;;;;;19.38;12.50;;;;;;;;;;5081425;28;20048;-73
2024/02/15 01:48:40;;;;;;;21.93;12.40;;;;;;;;;;5082702;28;20056;-73
2024/02/15 01:51:08;;;;;;;17.30;12.23;;;;;;;;;;5064425;28;21535;-73
2024/02/15 01:53:34;;;;;;;19.92;12.25;;;;;;;;;;5083978;28;20048;-73
2024/02/15 01:56:02;;;;;;;22.48;11.73;;;;;;;;;;5072108;28;20040;-74
2024/02/15 01:58:31;;;;;;;17.42;12.07;;;;;;;;;;5057726;28;20055;-75
2024/02/15 02:00:59;;;;;;;22.40;11.70;;;;;;;;;;5071318;28;20048;-74
2024/02/15 02:03:26;;;;;;;25.90;12.75;;;;;;;;;;5072395;28;20134;-75
2024/02/15 02:05:52;;;;;;;19.83;12.63;;;;;;;;;;5072321;28;20055;-74
2024/02/15 02:08:19;;;;;;;21.65;12.50;;;;;;;;;;5073668;28;20155;-74
2024/02/15 02:10:46;;;;;;;17.48;10.93;;;;;;;;;;5079153;28;20054;-74
2024/02/15 02:13:12;;;;;;;20.30;11.45;;;;;;;;;;5083734;28;20037;-74
2024/02/15 02:15:39;;;;;;;20.55;12.00;;;;;;;;;;5060291;28;20049;-74
2024/02/15 02:18:10;;;;;;;20.27;12.10;;;;;;;;;;5075927;28;20145;-74
2024/02/15 02:20:36;;;;;;;20.95;11.05;;;;;;;;;;5067299;28;20124;-75
2024/02/15 02:23:07;;;;;;;19.27;11.75;;;;;;;;;;5056180;28;20048;-74
2024/02/15 02:25:34;;;;;;;21.25;12.23;;;;;;;;;;5083680;28;20385;-74
2024/02/15 02:28:01;;;;;;;16.95;11.23;;;;;;;;;;5075222;28;20044;-74
2024/02/15 02:30:29;;;;;;;20.20;12.23;;;;;;;;;;5071182;28;20119;-74
2024/02/15 02:32:59;;;;;;;22.35;12.13;;;;;;;;;;5062401;28;20438;-74
2024/02/15 02:35:27;;;;;;;20.50;11.85;;;;;;;;;;5080634;28;20052;-74
2024/02/15 02:37:54;;;;;;;16.90;11.13;;;;;;;;;;5061706;28;20049;-73
2024/02/15 02:40:20;;;;;;;18.90;11.35;;;;;;;;;;5068380;28;20207;-74
2024/02/15 02:42:55;;;;;;;16.77;11.15;;;;;;;;;;5079666;28;20067;-74
2024/02/15 02:45:22;;;;;;;19.23;10.80;;;;;;;;;;5059653;28;20117;-74
2024/02/15 02:47:49;;;;;;;18.08;10.05;;;;;;;;;;5078466;28;20542;-74
2024/02/15 02:50:22;;;;;;;21.90;10.45;;;;;;;;;;5068146;28;20485;-74
2024/02/15 02:52:49;;;;;;;20.77;10.35;;;;;;;;;;5056322;28;20072;-74
2024/02/15 02:55:15;;;;;;;20.58;9.93;;;;;;;;;;5071461;28;20452;-74
2024/02/15 02:57:45;;;;;;;19.85;9.90;;;;;;;;;;5067999;28;20044;-74
2024/02/15 03:00:12;;;;;;;18.52;10.18;;;;;;;;;;5076371;28;20052;-74
2024/02/15 03:02:39;;;;;;;16.95;9.52;;;;;;;;;;5064770;28;20048;-74
2024/02/15 03:05:08;;;;;;;22.48;9.35;;;;;;;;;;5079650;28;20079;-74
2024/02/15 03:07:35;;;;;;;19.45;9.55;;;;;;;;;;5068581;28;20068;-74
2024/02/15 03:10:08;;;;;;;17.33;9.35;;;;;;;;;;5084283;28;20044;-74
2024/02/15 03:12:38;;;;;;;17.27;9.52;;;;;;;;;;5071225;28;20147;-74
2024/02/15 03:15:10;;;;;;;13.70;8.95;;;;;;;;;;5062533;28;20159;-74
2024/02/15 03:17:38;;;;;;;20.02;9.05;;;;;;;;;;5081536;28;20075;-74
2024/02/15 03:20:11;;;;;;;15.38;8.68;;;;;;;;;;5079462;28;20048;-74
2024/02/15 03:22:38;;;;;;;20.67;8.13;;;;;;;;;;5082197;28;20051;-74
2024/02/15 03:25:07;;;;;;;19.00;9.43;;;;;;;;;;5060575;28;20040;-73
2024/02/15 03:27:35;;;;;;;17.60;9.15;;;;;;;;;;5082091;28;20059;-74
2024/02/15 03:30:02;;;;;;;21.27;9.40;;;;;;;;;;5077250;28;20063;-74
2024/02/15 03:32:28;;;;;;;19.48;8.52;;;;;;;;;;5063790;28;20056;-74
2024/02/15 03:34:55;;;;;;;15.52;7.72;;;;;;;;;;5067981;28;20049;-73
2024/02/15 03:37:21;;;;;;;15.63;7.35;;;;;;;;;;5083933;28;20098;-74
2024/02/15 03:39:47;;;;;;;16.13;7.68;;;;;;;;;;5065756;28;20135;-74
2024/02/15 03:42:15;;;;;;;18.13;8.45;;;;;;;;;;5058120;28;20114;-73
2024/02/15 03:44:41;;;;;;;20.30;8.07;;;;;;;;;;5081567;28;20044;-73
2024/02/15 03:47:07;;;;;;;21.08;7.38;;;;;;;;;;5070708;28;20044;-73
2024/02/15 03:49:34;;;;;;;18.35;7.00;;;;;;;;;;5061693;28;20056;-74
2024/02/15 03:52:00;;;;;;;17.52;6.88;;;;;;;;;;5085401;28;20044;-73
2024/02/15 03:54:27;;;;;;;15.65;6.93;;;;;;;;;;5060969;28;20055;-72
2024/02/15 03:56:54;;;;;;;15.45;6.78;;;;;;;;;;5061700;28;20045;-72
2024/02/15 03:59:26;;;;;;;14.65;6.60;;;;;;;;;;5071266;28;20047;-71
2024/02/15 04:01:54;;;;;;;15.10;5.95;;;;;;;;;;5084815;28;20036;-74
2024/02/15 04:04:23;;;;;;;16.73;6.07;;;;;;;;;;5082843;28;20051;-72
2024/02/15 04:06:50;;;;;;;14.15;6.72;;;;;;;;;;5060330;28;20056;-73
2024/02/15 04:09:17;;;;;;;14.52;6.07;;;;;;;;;;5077766;28;20502;-74
2024/02/15 04:11:46;;;;;;;15.75;6.20;;;;;;;;;;5083488;28;20048;-72
2024/02/15 04:14:13;;;;;;;13.52;5.78;;;;;;;;;;5071627;28;20075;-74
2024/02/15 04:16:40;;;;;;;14.63;5.85;;;;;;;;;;5067351;28;20786;-74
2024/02/15 04:19:06;;;;;;;17.52;5.90;;;;;;;;;;5078545;28;20052;-74
2024/02/15 04:21:33;;;;;;;15.95;5.93;;;;;;;;;;5076038;28;20054;-74
2024/02/15 04:23:59;;;;;;;11.02;5.70;;;;;;;;;;5062012;28;20143;-74
2024/02/15 04:26:26;;;;;;;15.98;5.03;;;;;;;;;;5084838;28;20105;-74
2024/02/15 04:28:53;;;;;;;14.20;5.70;;;;;;;;;;5076669;28;20480;-73
2024/02/15 04:31:26;;;;;;;17.48;5.57;;;;;;;;;;5076720;28;20113;-74
2024/02/15 04:33:53;;;;;;;17.75;5.63;;;;;;;;;;5086420;28;20484;-74
2024/02/15 04:36:23;;;;;;;13.10;5.20;;;;;;;;;;5084740;28;20047;-73
2024/02/15 04:38:50;;;;;;;15.85;5.75;;;;;;;;;;5062036;28;20114;-74
2024/02/15 04:41:19;;;;;;;12.57;5.07;;;;;;;;;;5053753;28;20453;-72
2024/02/15 04:43:46;;;;;;;11.95;4.78;;;;;;;;;;5076593;28;20443;-74
2024/02/15 04:46:14;;;;;;;18.20;5.38;;;;;;;;;;5080846;28;20084;-73
2024/02/15 04:48:42;;;;;;;10.93;4.60;;;;;;;;;;5082929;28;20053;-74
2024/02/15 04:51:10;;;;;;;15.00;5.40;;;;;;;;;;5065396;28;20051;-74
2024/02/15 04:53:38;;;;;;;10.43;5.13;;;;;;;;;;5068947;28;20044;-74
2024/02/15 04:56:11;;;;;;;16.67;5.13;;;;;;;;;;5054802;28;20048;-74
2024/02/15 04:58:38;;;;;;;12.45;4.55;;;;;;;;;;5063144;28;20097;-74
2024/02/15 05:01:04;;;;;;;14.27;5.43;;;;;;;;;;5079649;28;20063;-73
2024/02/15 05:03:34;;;;;;;14.35;4.68;;;;;;;;;;5076120;28;20052;-74
2024/02/15 05:06:01;;;;;;;11.57;4.63;;;;;;;;;;5076282;28;20052;-74
2024/02/15 05:08:31;;;;;;;18.20;5.32;;;;;;;;;;5082112;28;20047;-74
2024/02/15 05:10:58;;;;;;;13.15;4.90;;;;;;;;;;5077541;28;20051;-73
2024/02/15 05:13:25;;;;;;;15.15;5.30;;;;;;;;;;5085851;28;20059;-75
2024/02/15 05:15:51;;;;;;;13.43;5.00;;;;;;;;;;5066832;28;20078;-75
2024/02/15 05:18:18;;;;;;;11.55;5.28;;;;;;;;;;5076631;28;20040;-75
2024/02/15 05:20:45;;;;;;;14.52;4.90;;;;;;;;;;5057751;28;20168;-75
2024/02/15 05:23:12;;;;;;;8.50;4.35;;;;;;;;;;5067627;28;20502;-76
2024/02/15 05:25:38;;;;;;;13.30;5.80;;;;;;;;;;5054889;28;20044;-74
2024/02/15 05:28:08;;;;;;;12.82;5.43;;;;;;;;;;5079110;28;20044;-73
2024/02/15 05:30:36;;;;;;;12.98;5.10;;;;;;;;;;5089823;28;20714;-73
2024/02/15 05:33:03;;;;;;;8.88;4.65;;;;;;;;;;5062155;28;20060;-75
2024/02/15 05:35:30;;;;;;;9.75;4.50;;;;;;;;;;5079223;28;20097;-74
2024/02/15 05:37:57;;;;;;;14.00;4.75;;;;;;;;;;5085619;28;20090;-74
2024/02/15 05:40:23;;;;;;;14.18;4.72;;;;;;;;;;5062395;28;20051;-74
2024/02/15 05:42:54;;;;;;;13.50;5.45;;;;;;;;;;5073978;28;20048;-75
2024/02/15 05:45:26;;;;;;;13.35;5.03;;;;;;;;;;5078890;28;20530;-74
2024/02/15 05:47:54;;;;;;;10.95;4.72;;;;;;;;;;5081928;28;20048;-75
2024/02/15 05:50:23;;;;;;;12.45;4.63;;;;;;;;;;5078743;28;20056;-75
2024/02/15 05:52:51;;;;;;;8.52;4.68;;;;;;;;;;5059567;28;20048;-74
2024/02/15 05:55:18;;;;;;;10.43;4.75;;;;;;;;;;5077553;28;20040;-74
2024/02/15 05:57:45;;;;;;;14.75;4.68;;;;;;;;;;5077260;28;20048;-76
2024/02/15 06:00:12;;;;;;;13.15;5.15;;;;;;;;;;5073957;28;20055;-74
2024/02/15 06:02:49;;;;;;;14.15;4.95;;;;;;;;;;5069757;28;20054;-76
2024/02/15 06:05:16;;;;;;;13.80;4.97;;;;;;;;;;5051125;28;20044;-74
2024/02/15 06:07:43;;;;;;;13.32;4.55;;;;;;;;;;5057283;28;20052;-75
2024/02/15 06:10:10;;;;;;;11.45;4.70;;;;;;;;;;5060504;28;20045;-75
2024/02/15 06:12:36;;;;;;;11.40;4.25;;;;;;;;;;5085123;28;20052;-74
2024/02/15 06:15:05;;;;;;;12.20;4.22;;;;;;;;;;5077414;28;20040;-74
2024/02/15 06:17:31;;;;;;;12.32;4.10;;;;;;;;;;5084919;28;20097;-74
2024/02/15 06:19:58;;;;;;;10.27;4.68;;;;;;;;;;5080466;28;20527;-75
2024/02/15 06:22:25;;;;;;;10.45;4.43;;;;;;;;;;5084835;28;20052;-74
2024/02/15 06:24:53;;;;;;;12.00;4.13;;;;;;;;;;5086568;28;20501;-75
2024/02/15 06:27:19;;;;;;;10.48;3.90;;;;;;;;;;5076609;28;20662;-73
2024/02/15 06:40:46;;;;;;;12.55;3.97;;;;;;;;;;5083114;28;20337;-73
2024/02/15 06:43:13;;;;;;;11.57;4.47;;;;;;;;;;5078616;28;20394;-73
2024/02/15 06:45:41;;;;;;;8.70;3.90;;;;;;;;;;5067751;28;20127;-73
2024/02/15 06:48:08;;;;;;;8.98;3.50;;;;;;;;;;5083971;28;20036;-73
2024/02/15 06:50:37;;;;;;;11.00;4.15;;;;;;;;;;5067388;28;20052;-74
2024/02/15 06:53:04;;;;;;;10.70;4.30;;;;;;;;;;5083169;28;20052;-73
2024/02/15 06:55:30;;;;;;;11.57;5.05;;;;;;;;;;5053705;28;20818;-73
2024/02/15 06:57:57;;;;;;;12.63;4.63;;;;;;;;;;5079800;28;20371;-74
2024/02/15 07:00:24;;;;;;;10.65;4.72;;;;;;;;;;5065880;28;20044;-73
2024/02/15 07:02:51;;;;;;;7.90;4.30;;;;;;;;;;5077181;28;20101;-74
2024/02/15 07:05:17;;;;;;;11.80;4.05;;;;;;;;;;5085511;28;20169;-73
2024/02/15 07:07:43;;;;;;;9.65;4.68;;;;;;;;;;5084876;28;20048;-72
2024/02/15 07:10:10;;;;;;;11.55;5.10;;;;;;;;;;5069460;28;20473;-72
2024/02/15 07:12:37;;;;;;;10.73;4.70;;;;;;;;;;5073841;28;20185;-73
2024/02/15 07:15:06;;;;;;;9.60;4.00;;;;;;;;;;5069955;28;20059;-74
2024/02/15 07:17:33;;;;;;;9.25;4.55;;;;;;;;;;5074436;28;20066;-74
2024/02/15 07:19:59;;;;;;;11.50;3.92;;;;;;;;;;5063558;28;20143;-73
2024/02/15 07:22:26;;;;;;;11.98;4.38;;;;;;;;;;5082322;28;20040;-74
2024/02/15 07:24:52;;;;;;;7.15;4.07;;;;;;;;;;5058122;28;20443;-76
2024/02/15 07:27:21;;;;;;;9.13;4.10;;;;;;;;;;5080672;28;20059;-76
2024/02/15 07:29:49;;;;;;;11.30;4.88;;;;;;;;;;5070653;28;20357;-75
2024/02/15 07:32:17;;;;;;;10.13;4.63;;;;;;;;;;5069238;28;20106;-74
2024/02/15 07:34:47;;;;;;;11.00;4.27;;;;;;;;;;5082029;28;20046;-74
2024/02/15 07:37:15;;;;;;;8.43;4.60;;;;;;;;;;5074789;28;20491;-74
2024/02/15 07:39:42;;;;;;;10.40;4.20;;;;;;;;;;5074236;28;20080;-73
2024/02/15 07:42:08;;;;;;;9.20;4.60;;;;;;;;;;5066438;28;20113;-74
2024/02/15 07:44:36;;;;;;;6.45;3.88;;;;;;;;;;5062070;28;20052;-73
2024/02/15 07:47:04;;;;;;;8.43;4.55;;;;;;;;;;5062131;28;20458;-74
2024/02/15 07:49:31;;;;;;;9.85;4.85;;;;;;;;;;5076602;28;20048;-75
2024/02/15 07:51:59;;;;;;;8.38;3.95;;;;;;;;;;5076482;28;20052;-76
2024/02/15 07:54:25;;;;;;;8.77;4.23;;;;;;;;;;5068794;28;20048;-75
2024/02/15 07:56:52;;;;;;;10.43;3.95;;;;;;;;;;5083779;28;20699;-74
2024/02/15 07:59:19;;;;;;;7.85;4.05;;;;;;;;;;5073202;28;20041;-74
2024/02/15 08:01:47;;;;;;;9.10;4.13;;;;;;;;;;5080761;28;20052;-74
2024/02/15 08:04:14;;;;;;;7.10;3.67;;;;;;;;;;5084373;28;20052;-74
2024/02/15 08:06:44;;;;;;;8.38;3.85;;;;;;;;;;5042810;28;20542;-75
2024/02/15 08:09:13;;;;;;;8.45;4.28;;;;;;;;;;5060271;28;20098;-75
2024/02/15 08:11:40;;;;;;;8.10;3.75;;;;;;;;;;5071415;28;20056;-74
2024/02/15 08:14:10;;;;;;;9.13;4.32;;;;;;;;;;5061405;28;20518;-75
2024/02/15 08:16:40;;;;;;;8.57;3.65;;;;;;;;;;5055463;28;20044;-75
2024/02/15 08:19:07;;;;;;;6.40;4.28;;;;;;;;;;5073373;28;20044;-75
2024/02/15 08:21:35;;;;;;;6.88;3.50;;;;;;;;;;5078205;28;20037;-75
2024/02/15 08:24:05;;;;;;;;;;;;;;;;;;5072504;28;20044;-76
2024/02/15 08:26:38;;;;;;;7.07;3.63;;;;;;;;;;5067449;28;19955;-76
2024/02/15 08:29:06;;;;;;;5.97;3.70;;;;;;;;;;5071890;28;20053;-76
2024/02/15 08:31:33;;;;;;;7.40;3.45;;;;;;;;;;5063211;28;20094;-76
2024/02/15 08:34:01;;;;;;;10.38;3.58;;;;;;;;;;5080928;28;20051;-74
2024/02/15 08:36:27;;;;;;;5.03;3.70;;;;;;;;;;5073314;28;20040;-75
2024/02/15 08:38:54;;;;;;;6.75;3.72;;;;;;;;;;5076844;28;20756;-75
2024/02/15 08:41:23;;;;;;;7.28;3.22;;;;;;;;;;5052765;28;20056;-74
2024/02/15 08:43:49;;;;;;;8.95;3.60;;;;;;;;;;5082910;28;20056;-74
2024/02/15 08:46:16;;;;;;;10.52;3.63;;;;;;;;;;5077999;28;20611;-74
2024/02/15 08:48:43;;;;;;;6.68;3.58;;;;;;;;;;5069804;28;20055;-74
2024/02/15 08:51:10;;;;;;;5.25;3.60;;;;;;;;;;5076439;28;20587;-76
2024/02/15 08:53:36;;;;;;;6.85;2.92;;;;;;;;;;5070740;28;20048;-74
2024/02/15 08:56:03;;;;;;;6.82;3.22;;;;;;;;;;5080767;28;20101;-75
2024/02/15 08:58:30;;;;;;;5.00;3.17;;;;;;;;;;5051744;28;20052;-76
2024/02/15 09:00:57;;;;;;;6.45;3.78;;;;;;;;;;5071979;28;20041;-75
2024/02/15 09:03:23;;;;;;;6.95;3.35;;;;;;;;;;5068602;28;20052;-72
2024/02/15 09:05:50;;;;;;;5.50;3.78;;;;;;;;;;5048258;28;20062;-74
2024/02/15 09:08:20;;;;;;;7.00;3.70;;;;;;;;;;5088378;28;20135;-75
2024/02/15 09:10:47;;;;;;;4.72;3.42;;;;;;;;;;5073756;28;20118;-75
2024/02/15 09:13:14;;;;;;;6.20;3.90;;;;;;;;;;5060545;28;20047;-75
2024/02/15 09:15:41;;;;;;;6.40;3.42;;;;;;;;;;5078708;28;20044;-75
2024/02/15 09:18:11;;;;;;;8.65;3.42;;;;;;;;;;5057246;28;20058;-75
2024/02/15 09:20:40;;;;;;;6.60;3.97;;;;;;;;;;5063416;28;20475;-75
2024/02/15 09:23:09;;;;;;;6.30;3.78;;;;;;;;;;5085998;28;20051;-76
2024/02/15 09:25:38;;;;;;;4.53;3.10;;;;;;;;;;5061064;28;20048;-74
2024/02/15 09:28:04;;;;;;;;;;;;;;;;;;5076773;28;20058;-75
2024/02/15 09:30:31;;;;;;;9.27;3.70;;;;;;;;;;5065468;28;19924;-75
2024/02/15 09:32:58;;;;;;;5.07;3.00;;;;;;;;;;5074050;28;20056;-74
2024/02/15 09:35:24;;;;;;;7.78;3.17;;;;;;;;;;5085001;28;20393;-74
2024/02/15 09:37:52;;;;;;;5.80;3.20;;;;;;;;;;5070796;28;20066;-74
2024/02/15 09:40:19;;;;;;;9.30;3.42;;;;;;;;;;5081788;28;20051;-73
2024/02/15 09:42:46;;;;;;;6.93;2.78;;;;;;;;;;5086572;28;20064;-73
2024/02/15 09:45:14;;;;;;;6.50;2.92;;;;;;;;;;5069884;28;20446;-74
2024/02/15 09:47:41;;;;;;;;;;;;;;;;;;5058683;28;20485;-74
2024/02/15 09:50:11;;;;;;;6.18;2.95;;;;;;;;;;5088436;28;19923;-74
2024/02/15 09:52:38;;;;;;;8.48;2.90;;;;;;;;;;5059383;28;20434;-74
2024/02/15 09:55:05;;;;;;;5.88;2.95;;;;;;;;;;5088573;28;20042;-74
2024/02/15 09:57:32;;;;;;;8.40;2.97;;;;;;;;;;5075719;28;20075;-75
2024/02/15 10:00:07;;;;;;;7.32;2.75;;;;;;;;;;5078188;28;20039;-75
2024/02/15 10:02:38;;;;;;;8.00;3.17;;;;;;;;;;5085115;28;20083;-74
2024/02/15 10:05:04;;;;;;;8.77;3.35;;;;;;;;;;5068810;28;20079;-75
2024/02/15 10:07:31;;;;;;;6.60;3.20;;;;;;;;;;5077776;28;20138;-75
2024/02/15 10:10:13;;;;;;;8.88;2.92;;;;;;;;;;5063314;28;20044;-74
2024/02/15 10:12:40;;;;;;;8.35;3.13;;;;;;;;;;5075506;28;20040;-74
2024/02/15 10:15:07;;;;;;;6.63;2.97;;;;;;;;;;5079835;28;20124;-75
2024/02/15 10:17:35;;;;;;;12.13;3.28;;;;;;;;;;5067000;28;20044;-74
2024/02/15 10:20:10;;;;;;;7.65;2.92;;;;;;;;;;5081026;28;20044;-73
2024/02/15 10:22:36;;;;;;;9.98;2.90;;;;;;;;;;5069945;28;20146;-73
2024/02/15 10:25:12;;;;;;;5.03;2.60;;;;;;;;;;5088265;28;20588;-73
2024/02/15 10:27:42;;;;;;;10.38;3.65;;;;;;;;;;5049226;28;20044;-73
2024/02/15 10:30:19;;;;;;;10.30;3.42;;;;;;;;;;5061686;28;20043;-72
2024/02/15 10:32:46;;;;;;;7.95;3.20;;;;;;;;;;5079501;28;20055;-72
2024/02/15 10:35:20;;;;;;;10.80;4.10;;;;;;;;;;5083795;28;20045;-73
2024/02/15 10:37:48;;;;;;;8.60;4.07;;;;;;;;;;5077652;28;20063;-73
2024/02/15 10:40:18;;;;;;;9.80;3.90;;;;;;;;;;5060492;28;20149;-73
2024/02/15 10:42:46;;;;;;;8.85;3.75;;;;;;;;;;5071321;28;20097;-72
2024/02/15 10:45:14;;;;;;;11.18;4.10;;;;;;;;;;5068337;28;20044;-73
2024/02/15 10:47:42;;;;;;;11.17;3.80;;;;;;;;;;5066376;28;20378;-73
2024/02/15 10:50:10;;;;;;;10.00;3.10;;;;;;;;;;5078410;28;20515;-73
2024/02/15 10:52:41;;;;;;;10.20;3.25;;;;;;;;;;5086491;28;20083;-72
2024/02/15 10:55:13;;;;;;;13.40;3.97;;;;;;;;;;5090141;28;20607;-72
2024/02/15 10:57:42;;;;;;;9.32;3.45;;;;;;;;;;5077585;28;20048;-72
2024/02/15 11:00:19;;;;;;;7.85;3.45;;;;;;;;;;5086318;28;20078;-73
2024/02/15 11:03:07;;;;;;;7.30;3.50;;;;;;;;;;5070539;28;20076;-73
2024/02/15 11:05:34;;;;;;;10.38;3.38;;;;;;;;;;5067251;28;20110;-72
2024/02/15 11:08:05;;;;;;;7.47;3.42;;;;;;;;;;5087424;28;20226;-73
2024/02/15 11:10:32;;;;;;;6.45;3.20;;;;;;;;;;5078246;28;20476;-74
2024/02/15 11:12:59;;;;;;;7.22;3.50;;;;;;;;;;5082813;28;20476;-73
2024/02/15 11:15:41;;;;;;;9.55;3.88;;;;;;;;;;5097223;28;20039;-74
2024/02/15 11:18:07;;;;;;;6.80;3.75;;;;;;;;;;5070172;28;20051;-72
2024/02/15 11:20:34;;;;;;;11.90;3.88;;;;;;;;;;5070504;28;20478;-74
2024/02/15 11:23:03;;;;;;;10.00;3.90;;;;;;;;;;5065922;28;20044;-74
2024/02/15 11:25:39;;;;;;;6.78;3.67;;;;;;;;;;5054764;28;20059;-74
2024/02/15 11:28:21;;;;;;;8.13;3.17;;;;;;;;;;5070142;28;20048;-74
2024/02/15 11:30:48;;;;;;;10.43;3.10;;;;;;;;;;5072718;28;20105;-73
2024/02/15 11:33:26;;;;;;;7.70;3.28;;;;;;;;;;5065614;28;20044;-73
2024/02/15 11:36:02;;;;;;;6.13;2.80;;;;;;;;;;5079860;28;20687;-74
2024/02/15 11:38:29;;;;;;;9.18;3.50;;;;;;;;;;5068467;28;20385;-73
2024/02/15 11:40:55;;;;;;;9.73;3.80;;;;;;;;;;5079601;28;20464;-73
2024/02/15 11:43:45;;;;;;;8.73;3.60;;;;;;;;;;5077688;28;20674;-73
2024/02/15 11:46:17;;;;;;;8.30;3.40;;;;;;;;;;5056728;28;20047;-74
2024/02/15 11:48:47;;;;;;;6.75;3.25;;;;;;;;;;5086288;28;20048;-74
2024/02/15 11:51:26;;;;;;;6.53;3.55;;;;;;;;;;5072137;28;20507;-73
2024/02/15 11:53:59;;;;;;;5.97;3.25;;;;;;;;;;5070519;28;20048;-72
2024/02/15 11:56:26;;;;;;;8.23;3.88;;;;;;;;;;5070010;28;20797;-73
2024/02/15 11:59:08;;;;;;;10.05;3.92;;;;;;;;;;5076565;28;20667;-74
2024/02/15 12:21:09;;;;;;;8.55;3.45;;;;;;;;;;5068516;28;20131;-74
2024/02/15 12:23:38;;;;;;;8.88;3.17;;;;;;;;;;5066601;28;20063;-75
2024/02/15 12:26:04;;;;;;;9.00;3.40;;;;;;;;;;5061857;28;20137;-74
2024/02/15 12:28:31;;;;;;;9.25;3.90;;;;;;;;;;5077961;28;20055;-74
2024/02/15 12:30:57;;;;;;;7.57;3.88;;;;;;;;;;5068180;28;20046;-73
2024/02/15 12:33:24;;;;;;;5.75;2.95;;;;;;;;;;5070638;28;20079;-74
2024/02/15 12:35:51;;;;;;;8.48;3.60;;;;;;;;;;5082412;28;20043;-74
2024/02/15 12:38:18;;;;;;;11.65;5.30;;;;;;;;;;5083932;28;20087;-73
2024/02/15 12:40:45;;;;;;;9.98;3.92;;;;;;;;;;5086071;28;20464;-73
2024/02/15 12:43:15;;;;;;;7.72;3.28;;;;;;;;;;5074886;28;20052;-73
2024/02/15 12:45:41;;;;;;;6.88;3.45;;;;;;;;;;5066539;28;20051;-73
2024/02/15 12:48:08;;;;;;;5.65;3.35;;;;;;;;;;5076620;28;20051;-73
2024/02/15 12:50:35;;;;;;;8.32;3.45;;;;;;;;;;5071868;28;20080;-74
2024/02/15 12:53:02;;;;;;;7.65;2.47;;;;;;;;;;5082747;28;20055;-73
2024/02/15 12:55:34;;;;;;;7.05;2.70;;;;;;;;;;5060633;28;20056;-73
2024/02/15 12:58:03;;;;;;;8.13;2.65;;;;;;;;;;5083555;28;20056;-80
2024/02/15 13:00:35;;;;;;;9.30;2.85;;;;;;;;;;5073088;28;20620;-74
2024/02/15 13:03:03;;;;;;;7.53;2.45;;;;;;;;;;5073093;28;20059;-74
2024/02/15 13:05:31;;;;;;;9.02;2.50;;;;;;;;;;5069101;28;20521;-75
2024/02/15 13:07:57;;;;;;;4.25;2.08;;;;;;;;;;5081791;28;20427;-73
2024/02/15 13:10:24;;;;;;;5.63;2.50;;;;;;;;;;5071866;28;20194;-75
2024/02/15 13:12:52;;;;;;;8.52;2.38;;;;;;;;;;5080772;28;20047;-74
2024/02/15 13:15:21;;;;;;;11.18;2.80;;;;;;;;;;5068063;28;20123;-75
2024/02/15 13:17:51;;;;;;;5.22;2.10;;;;;;;;;;5062245;28;20043;-75
2024/02/15 13:20:20;;;;;;;4.97;2.13;;;;;;;;;;5076361;28;20048;-75
2024/02/15 13:22:49;;;;;;;5.72;2.40;;;;;;;;;;5064197;28;20045;-74
2024/02/15 13:25:16;;;;;;;7.07;2.22;;;;;;;;;;5077012;28;20059;-75
2024/02/15 13:27:43;;;;;;;4.95;1.65;;;;;;;;;;5085401;28;20388;-74
2024/02/15 13:30:10;;;;;;;2.80;1.83;;;;;;;;;;5066506;28;20559;-75
2024/02/15 13:32:38;;;;;;;6.10;2.00;;;;;;;;;;5067706;28;20056;-75
2024/02/15 13:35:12;;;;;;;7.13;2.47;;;;;;;;;;5086610;28;20109;-75
2024/02/15 13:37:42;;;;;;;7.10;1.98;;;;;;;;;;5089343;28;20499;-75
2024/02/15 13:40:14;;;;;;;7.53;2.30;;;;;;;;;;5082879;28;20077;-75
2024/02/15 13:42:49;;;;;;;9.23;3.90;;;;;;;;;;5059382;28;20044;-75
2024/02/15 13:45:16;;;;;;;6.50;2.70;;;;;;;;;;5084420;28;20811;-74
2024/02/15 13:47:50;;;;;;;11.40;3.28;;;;;;;;;;5069199;28;20526;-74
2024/02/15 13:50:18;;;;;;;5.90;2.60;;;;;;;;;;5083478;28;20096;-75
2024/02/15 13:52:44;;;;;;;8.43;3.03;;;;;;;;;;5077900;28;20132;-74
2024/02/15 13:55:14;;;;;;;8.52;3.20;;;;;;;;;;5077291;28;20510;-75
2024/02/15 13:57:42;;;;;;;5.18;2.90;;;;;;;;;;5082692;28;20048;-75
2024/02/15 14:00:21;;;;;;;7.70;3.35;;;;;;;;;;5076581;28;20474;-74
2024/02/15 14:02:51;;;;;;;5.93;3.22;;;;;;;;;;5103002;27;20121;-74
2024/02/15 14:05:20;;;;;;;5.60;2.55;;;;;;;;;;5073721;28;20052;-74
2024/02/15 14:07:48;;;;;;;7.47;3.15;;;;;;;;;;5073505;28;20048;-74
2024/02/15 14:10:15;;;;;;;8.15;3.47;;;;;;;;;;5100879;28;20125;-74
2024/02/15 14:12:41;;;;;;;10.20;3.72;;;;;;;;;;5075170;28;20048;-75
2024/02/15 14:15:08;;;;;;;7.32;3.40;;;;;;;;;;5066857;28;20059;-74
2024/02/15 14:17:35;;;;;;;6.13;2.65;;;;;;;;;;5072599;28;20044;-75
2024/02/15 14:20:01;;;;;;;6.03;2.17;;;;;;;;;;5069522;28;20066;-75
2024/02/15 14:22:29;;;;;;;8.25;3.20;;;;;;;;;;5059332;28;20145;-75
2024/02/15 14:24:55;;;;;;;6.05;2.75;;;;;;;;;;5076989;28;20051;-75
2024/02/15 14:27:22;;;;;;;5.25;2.42;;;;;;;;;;5081712;28;20048;-74
2024/02/15 14:33:00;;;;;;;6.60;2.70;;;;;;;;;;5031877;28;20053;-75
2024/02/15 14:35:34;;;;;;;8.13;3.33;;;;;;;;;;5076573;28;20058;-75
2024/02/15 14:38:05;;;;;;;6.97;3.13;;;;;;;;;;5080411;28;20044;-75
2024/02/15 14:40:35;;;;;;;7.35;2.67;;;;;;;;;;5063253;28;20140;-74
2024/02/15 14:43:04;;;;;;;7.72;2.80;;;;;;;;;;5055094;28;20056;-75
2024/02/15 14:45:34;;;;;;;8.40;2.63;;;;;;;;;;5083689;28;20505;-75
2024/02/15 14:48:02;;;;;;;4.03;2.47;;;;;;;;;;5055489;28;20048;-75
2024/02/15 14:50:30;;;;;;;5.93;2.42;;;;;;;;;;5077822;28;20048;-75
2024/02/15 14:52:56;;;;;;;5.20;2.20;;;;;;;;;;5079963;28;20055;-75
2024/02/15 14:55:23;;;;;;;10.52;2.50;;;;;;;;;;5072058;28;20117;-74
2024/02/15 14:57:50;;;;;;;8.82;2.50;;;;;;;;;;5060007;28;20074;-75
2024/02/15 15:00:21;;;;;;;7.97;2.13;;;;;;;;;;5085654;28;20109;-75
2024/02/15 15:02:48;;;;;;;5.28;2.25;;;;;;;;;;5066899;28;20482;-75
2024/02/15 15:13:31;;;;;;;5.05;2.08;;;;;;;;;;5080346;28;20568;-74
2024/02/15 15:15:58;;;;;;;5.10;2.97;;;;;;;;;;5058811;28;20060;-75
2024/02/15 15:18:24;;;;;;;9.90;2.30;;;;;;;;;;5066411;28;20301;-75
2024/02/15 15:20:51;;;;;;;6.75;2.38;;;;;;;;;;5075370;28;20040;-76